createdAt,value
2023-06-10T00:00:52.169Z,99.99
2023-06-10T00:01:52.145Z,99.99
2023-06-10T00:02:52.227Z,99.99
2023-06-10T00:03:52.297Z,99.99
2023-06-10T00:04:52.284Z,99.99
2023-06-10T00:05:52.084Z,99.99
2023-06-10T00:06:52.060Z,99.99
2023-06-10T00:07:52.083Z,99.99
2023-06-10T00:08:52.044Z,99.99
2023-06-10T00:09:52.035Z,99.99
2023-06-10T00:10:52.010Z,99.99
2023-06-10T00:11:52.002Z,99.99
2023-06-10T00:12:51.993Z,99.99
2023-06-10T00:13:51.991Z,99.99
2023-06-10T00:14:51.955Z,99.99
2023-06-10T00:15:51.959Z,99.99
2023-06-10T00:16:51.922Z,99.99
2023-06-10T00:17:51.923Z,99.99
2023-06-10T00:18:51.913Z,99.99
2023-06-10T00:19:51.876Z,99.99
2023-06-10T00:20:51.883Z,99.99
2023-06-10T00:21:51.858Z,99.99
2023-06-10T00:22:51.841Z,99.99
2023-06-10T00:23:51.877Z,99.99
2023-06-10T00:24:51.818Z,99.99
2023-06-10T00:25:51.801Z,99.99
2023-06-10T00:26:51.815Z,99.99
2023-06-10T00:27:51.768Z,99.99
2023-06-10T00:28:51.746Z,99.99
2023-06-10T00:29:51.734Z,99.99
2023-06-10T00:30:51.716Z,99.99
2023-06-10T00:31:51.752Z,99.99
2023-06-10T00:32:51.789Z,99.99
2023-06-10T00:33:51.736Z,99.99
2023-06-10T00:34:51.687Z,99.99
2023-06-10T00:35:51.665Z,99.99
2023-06-10T00:36:51.645Z,99.99
2023-06-10T00:37:51.636Z,99.99
2023-06-10T00:38:51.629Z,99.99
2023-06-10T00:39:51.608Z,99.99
2023-06-10T00:40:51.582Z,99.99
2023-06-10T00:41:51.600Z,99.99
2023-06-10T00:42:51.572Z,99.99
2023-06-10T00:43:51.549Z,99.99
2023-06-10T00:44:51.537Z,99.99
2023-06-10T00:45:51.518Z,99.99
2023-06-10T00:46:51.505Z,99.99
2023-06-10T00:47:51.523Z,99.99
2023-06-10T00:48:51.489Z,99.99
2023-06-10T00:49:51.475Z,99.99
2023-06-10T00:50:51.448Z,99.99
2023-06-10T00:51:51.451Z,99.99
2023-06-10T00:52:52.807Z,99.99
2023-06-10T00:53:51.449Z,99.99
2023-06-10T00:54:51.417Z,99.99
2023-06-10T00:55:51.382Z,99.99
2023-06-10T00:56:51.392Z,99.99
2023-06-10T00:57:51.356Z,99.99
2023-06-10T00:58:51.324Z,99.99
2023-06-10T00:59:51.329Z,99.99
2023-06-10T01:00:51.365Z,99.99
2023-06-10T01:01:51.315Z,99.99
2023-06-10T01:02:51.331Z,99.99
2023-06-10T01:03:51.275Z,99.99
2023-06-10T01:04:51.256Z,99.99
2023-06-10T01:05:51.262Z,99.99
2023-06-10T01:06:51.221Z,99.99
2023-06-10T01:07:51.222Z,99.99
2023-06-10T01:08:51.190Z,99.99
2023-06-10T01:09:51.185Z,99.99
2023-06-10T01:10:51.177Z,99.99
2023-06-10T01:11:51.161Z,99.99
2023-06-10T01:12:50.940Z,99.99
2023-06-10T01:13:51.136Z,99.99
2023-06-10T01:14:51.112Z,99.99
2023-06-10T01:15:51.116Z,99.99
2023-06-10T01:16:51.147Z,99.99
2023-06-10T01:17:51.141Z,99.99
2023-06-10T01:18:51.051Z,99.99
2023-06-10T01:19:51.050Z,99.99
2023-06-10T01:20:52.115Z,99.99
2023-06-10T01:21:50.553Z,99.99
2023-06-10T01:22:50.999Z,99.99
2023-06-10T01:23:51.053Z,99.99
2023-06-10T01:24:50.985Z,99.99
2023-06-10T01:25:50.966Z,99.99
2023-06-10T01:26:50.945Z,99.99
2023-06-10T01:27:50.935Z,99.99
2023-06-10T01:28:50.943Z,99.99
2023-06-10T01:29:50.922Z,99.99
2023-06-10T01:30:50.904Z,99.99
2023-06-10T01:31:51.001Z,99.99
2023-06-10T01:32:50.885Z,99.99
2023-06-10T01:33:50.873Z,99.99
2023-06-10T01:34:50.357Z,99.99
2023-06-10T01:35:50.824Z,99.99
2023-06-10T01:36:50.849Z,99.99
2023-06-10T01:37:50.816Z,99.96
2023-06-10T01:38:50.798Z,99.96
2023-06-10T01:39:50.873Z,99.46
2023-06-10T01:40:50.758Z,98.90
2023-06-10T01:41:50.751Z,98.29
2023-06-10T01:42:50.725Z,98.09
2023-06-10T01:43:50.728Z,97.79
2023-06-10T01:44:50.717Z,97.49
2023-06-10T01:45:50.706Z,96.07
2023-06-10T01:46:50.680Z,96.88
2023-06-10T01:47:50.968Z,97.03
2023-06-10T01:48:50.653Z,96.78
2023-06-10T01:49:50.643Z,96.57
2023-06-10T01:50:50.608Z,96.88
2023-06-10T01:51:50.633Z,96.98
2023-06-10T01:52:50.588Z,97.18
2023-06-10T01:53:50.603Z,97.18
2023-06-10T01:54:50.621Z,97.38
2023-06-10T01:55:50.579Z,97.38
2023-06-10T01:56:50.587Z,97.28
2023-06-10T01:57:50.601Z,98.09
2023-06-10T01:58:50.603Z,98.44
2023-06-10T01:59:50.502Z,98.54
2023-06-10T02:00:50.516Z,98.85
2023-06-10T02:01:50.470Z,98.85
2023-06-10T02:02:50.552Z,99.05
2023-06-10T02:03:50.471Z,99.80
2023-06-10T02:04:50.417Z,99.99
2023-06-10T02:05:50.416Z,99.99
2023-06-10T02:06:50.412Z,99.99
2023-06-10T02:07:50.400Z,99.99
2023-06-10T02:08:50.382Z,99.99
2023-06-10T02:09:50.365Z,99.99
2023-06-10T02:10:50.336Z,99.99
2023-06-10T02:11:50.327Z,99.99
2023-06-10T02:12:50.315Z,99.99
2023-06-10T02:13:50.289Z,99.99
2023-06-10T02:14:50.294Z,99.99
2023-06-10T02:15:50.265Z,99.99
2023-06-10T02:16:50.378Z,99.99
2023-06-10T02:17:50.335Z,99.99
2023-06-10T02:18:49.778Z,99.99
2023-06-10T02:19:50.212Z,99.99
2023-06-10T02:20:50.188Z,99.99
2023-06-10T02:21:50.181Z,99.99
2023-06-10T02:22:50.182Z,99.99
2023-06-10T02:23:50.153Z,99.99
2023-06-10T02:24:50.148Z,99.99
2023-06-10T02:25:50.128Z,99.99
2023-06-10T02:26:50.129Z,99.99
2023-06-10T02:27:50.095Z,99.99
2023-06-10T02:28:50.075Z,99.99
2023-06-10T02:29:49.133Z,99.99
2023-06-10T02:30:50.072Z,99.99
2023-06-10T02:31:50.117Z,99.99
2023-06-10T02:32:50.034Z,99.99
2023-06-10T02:33:50.034Z,99.99
2023-06-10T02:34:50.012Z,99.99
2023-06-10T02:35:49.987Z,99.99
2023-06-10T02:36:48.344Z,99.99
2023-06-10T02:37:49.970Z,99.99
2023-06-10T02:38:49.946Z,99.99
2023-06-10T02:39:49.917Z,99.99
2023-06-10T02:40:49.926Z,99.99
2023-06-10T02:41:49.900Z,99.99
2023-06-10T02:42:49.883Z,99.99
2023-06-10T02:43:49.896Z,99.99
2023-06-10T02:44:47.983Z,99.99
2023-06-10T02:45:49.956Z,99.99
2023-06-10T02:46:49.880Z,99.99
2023-06-10T02:47:49.897Z,99.99
2023-06-10T02:48:49.816Z,99.99
2023-06-10T02:49:49.807Z,99.99
2023-06-10T02:50:49.796Z,99.99
2023-06-10T02:51:49.788Z,99.99
2023-06-10T02:52:49.761Z,99.99
2023-06-10T02:53:49.767Z,99.99
2023-06-10T02:54:49.750Z,99.99
2023-06-10T02:55:49.727Z,99.99
2023-06-10T02:56:49.720Z,99.99
2023-06-10T02:57:49.706Z,99.99
2023-06-10T02:58:49.671Z,99.99
2023-06-10T02:59:49.671Z,99.99
2023-06-10T03:00:49.654Z,99.99
2023-06-10T03:01:49.692Z,99.99
2023-06-10T03:02:49.679Z,99.99
2023-06-10T03:03:49.636Z,99.99
2023-06-10T03:04:49.588Z,99.99
2023-06-10T03:05:49.596Z,99.99
2023-06-10T03:06:49.553Z,99.99
2023-06-10T03:07:49.541Z,99.99
2023-06-10T03:08:49.548Z,99.99
2023-06-10T03:09:49.524Z,99.99
2023-06-10T03:10:49.527Z,99.99
2023-06-10T03:11:49.491Z,99.99
2023-06-10T03:12:49.489Z,99.99
2023-06-10T03:13:49.479Z,99.99
2023-06-10T03:14:49.534Z,99.99
2023-06-10T03:15:49.524Z,99.99
2023-06-10T03:16:49.433Z,99.99
2023-06-10T03:17:49.450Z,99.99
2023-06-10T03:18:49.415Z,99.99
2023-06-10T03:19:49.549Z,99.99
2023-06-10T03:20:49.372Z,99.99
2023-06-10T03:21:49.348Z,99.99
2023-06-10T03:22:49.339Z,99.99
2023-06-10T03:23:49.381Z,99.99
2023-06-10T03:24:49.354Z,99.99
2023-06-10T03:25:49.285Z,99.99
2023-06-10T03:26:49.285Z,99.99
2023-06-10T03:27:49.268Z,99.99
2023-06-10T03:28:49.263Z,99.86
2023-06-10T03:29:49.264Z,99.96
2023-06-10T03:30:49.231Z,99.55
2023-06-10T03:31:49.313Z,99.99
2023-06-10T03:32:49.312Z,99.99
2023-06-10T03:33:49.198Z,99.35
2023-06-10T03:34:49.173Z,99.10
2023-06-10T03:35:49.155Z,98.70
2023-06-10T03:36:49.143Z,97.79
2023-06-10T03:37:49.148Z,96.73
2023-06-10T03:38:49.125Z,95.47
2023-06-10T03:39:49.097Z,94.15
2023-06-10T03:40:49.102Z,93.71
2023-06-10T03:41:49.079Z,92.69
2023-06-10T03:42:49.059Z,90.63
2023-06-10T03:43:49.050Z,89.83
2023-06-10T03:44:49.019Z,88.77
2023-06-10T03:45:49.107Z,87.62
2023-06-10T03:46:48.994Z,86.30
2023-06-10T03:47:49.104Z,85.56
2023-06-10T03:48:48.970Z,84.55
2023-06-10T03:49:47.613Z,83.91
2023-06-10T03:50:48.951Z,82.50
2023-06-10T03:51:48.947Z,81.75
2023-06-10T03:52:48.942Z,81.24
2023-06-10T03:53:48.908Z,80.54
2023-06-10T03:54:48.886Z,80.04
2023-06-10T03:55:48.879Z,79.29
2023-06-10T03:56:48.870Z,79.09
2023-06-10T03:57:48.861Z,78.49
2023-06-10T03:58:48.878Z,77.68
2023-06-10T03:59:48.847Z,77.64
2023-06-10T04:00:48.816Z,77.24
2023-06-10T04:01:48.894Z,76.74
2023-06-10T04:02:48.918Z,76.54
2023-06-10T04:03:48.785Z,76.23
2023-06-10T04:04:48.754Z,76.30
2023-06-10T04:05:48.774Z,75.99
2023-06-10T04:06:48.744Z,75.99
2023-06-10T04:07:48.716Z,75.70
2023-06-10T04:08:48.706Z,75.70
2023-06-10T04:09:48.689Z,75.70
2023-06-10T04:10:48.659Z,75.49
2023-06-10T04:11:48.674Z,75.29
2023-06-10T04:12:48.646Z,75.19
2023-06-10T04:13:48.635Z,75.49
2023-06-10T04:14:48.637Z,75.59
2023-06-10T04:15:48.612Z,75.49
2023-06-10T04:16:48.621Z,75.59
2023-06-10T04:17:48.612Z,76.10
2023-06-10T04:18:48.585Z,76.10
2023-06-10T04:19:48.545Z,76.90
2023-06-10T04:20:48.543Z,77.34
2023-06-10T04:21:48.516Z,77.75
2023-06-10T04:22:48.498Z,78.79
2023-06-10T04:23:48.509Z,79.49
2023-06-10T04:24:48.496Z,79.39
2023-06-10T04:25:48.486Z,79.80
2023-06-10T04:26:48.441Z,80.54
2023-06-10T04:27:48.425Z,80.94
2023-06-10T04:28:48.419Z,81.85
2023-06-10T04:29:48.421Z,82.25
2023-06-10T04:30:48.409Z,83.00
2023-06-10T04:31:48.401Z,83.40
2023-06-10T04:32:48.405Z,84.31
2023-06-10T04:33:48.356Z,85.31
2023-06-10T04:34:48.345Z,85.72
2023-06-10T04:35:48.324Z,85.96
2023-06-10T04:36:48.313Z,86.16
2023-06-10T04:37:48.295Z,86.27
2023-06-10T04:38:48.278Z,87.07
2023-06-10T04:39:48.276Z,87.68
2023-06-10T04:40:48.264Z,87.48
2023-06-10T04:41:48.257Z,87.48
2023-06-10T04:42:48.223Z,87.78
2023-06-10T04:43:48.211Z,87.38
2023-06-10T04:44:48.200Z,87.98
2023-06-10T04:45:48.185Z,87.54
2023-06-10T04:46:48.220Z,84.91
2023-06-10T04:47:48.229Z,85.22
2023-06-10T04:48:48.154Z,86.08
2023-06-10T04:49:48.140Z,85.78
2023-06-10T04:50:48.103Z,84.88
2023-06-10T04:51:48.098Z,84.53
2023-06-10T04:52:48.067Z,83.83
2023-06-10T04:53:48.056Z,83.62
2023-06-10T04:54:48.058Z,83.08
2023-06-10T04:55:48.040Z,81.77
2023-06-10T04:56:48.048Z,81.33
2023-06-10T04:57:49.705Z,80.79
2023-06-10T04:58:48.017Z,80.95
2023-06-10T04:59:47.996Z,79.64
2023-06-10T05:00:47.976Z,77.90
2023-06-10T05:01:48.002Z,76.56
2023-06-10T05:02:47.972Z,75.31
2023-06-10T05:03:47.975Z,73.61
2023-06-10T05:04:47.905Z,73.67
2023-06-10T05:05:47.899Z,72.33
2023-06-10T05:06:47.871Z,71.63
2023-06-10T05:07:47.881Z,70.09
2023-06-10T05:08:47.876Z,69.59
2023-06-10T05:09:47.844Z,69.76
2023-06-10T05:10:47.822Z,69.16
2023-06-10T05:11:47.823Z,68.52
2023-06-10T05:12:47.826Z,67.52
2023-06-10T05:13:47.800Z,67.09
2023-06-10T05:14:47.789Z,66.36
2023-06-10T05:15:47.756Z,65.95
2023-06-10T05:16:47.814Z,65.22
2023-06-10T05:17:47.794Z,65.12
2023-06-10T05:18:47.718Z,64.09
2023-06-10T05:19:47.714Z,63.89
2023-06-10T05:20:47.700Z,63.69
2023-06-10T05:21:47.672Z,64.06
2023-06-10T05:22:47.679Z,63.13
2023-06-10T05:23:47.656Z,61.63
2023-06-10T05:24:47.672Z,61.54
2023-06-10T05:25:47.616Z,61.43
2023-06-10T05:26:47.620Z,61.00
2023-06-10T05:27:47.614Z,60.97
2023-06-10T05:28:47.587Z,60.65
2023-06-10T05:29:47.564Z,59.92
2023-06-10T05:30:47.558Z,58.72
2023-06-10T05:31:47.612Z,58.62
2023-06-10T05:32:47.549Z,58.00
2023-06-10T05:33:47.509Z,57.87
2023-06-10T05:34:47.523Z,57.24
2023-06-10T05:35:47.482Z,56.05
2023-06-10T05:36:47.475Z,56.25
2023-06-10T05:37:47.477Z,56.12
2023-06-10T05:38:47.451Z,56.25
2023-06-10T05:39:47.422Z,56.55
2023-06-10T05:40:47.421Z,56.12
2023-06-10T05:41:47.405Z,55.40
2023-06-10T05:42:47.395Z,55.38
2023-06-10T05:43:47.618Z,54.35
2023-06-10T05:44:47.366Z,54.16
2023-06-10T05:45:47.384Z,54.35
2023-06-10T05:46:47.328Z,55.20
2023-06-10T05:47:47.347Z,57.67
2023-06-10T05:48:45.374Z,60.08
2023-06-10T05:49:47.276Z,60.93
2023-06-10T05:50:47.264Z,62.46
2023-06-10T05:51:47.266Z,63.59
2023-06-10T05:52:47.259Z,63.72
2023-06-10T05:53:47.232Z,64.86
2023-06-10T05:54:47.241Z,65.48
2023-06-10T05:55:47.211Z,65.99
2023-06-10T05:56:47.192Z,66.82
2023-06-10T05:57:47.164Z,66.92
2023-06-10T05:58:47.163Z,66.92
2023-06-10T05:59:47.155Z,67.12
2023-06-10T06:00:47.160Z,68.22
2023-06-10T06:01:47.132Z,69.02
2023-06-10T06:02:47.158Z,68.52
2023-06-10T06:03:47.221Z,67.62
2023-06-10T06:04:47.090Z,68.32
2023-06-10T06:05:47.080Z,67.52
2023-06-10T06:06:47.059Z,69.32
2023-06-10T06:07:47.038Z,68.12
2023-06-10T06:08:47.027Z,67.22
2023-06-10T06:09:47.019Z,66.69
2023-06-10T06:10:47.054Z,65.33
2023-06-10T06:11:45.702Z,64.00
2023-06-10T06:12:46.959Z,62.59
2023-06-10T06:13:46.953Z,58.51
2023-06-10T06:14:46.946Z,55.44
2023-06-10T06:15:46.971Z,53.51
2023-06-10T06:16:46.922Z,53.26
2023-06-10T06:17:46.955Z,51.52
2023-06-10T06:18:46.385Z,50.29
2023-06-10T06:19:46.864Z,49.17
2023-06-10T06:20:46.862Z,48.65
2023-06-10T06:21:46.849Z,48.65
2023-06-10T06:22:46.829Z,48.14
2023-06-10T06:23:46.865Z,47.86
2023-06-10T06:24:46.884Z,48.26
2023-06-10T06:25:46.796Z,47.64
2023-06-10T06:26:46.776Z,47.91
2023-06-10T06:27:46.749Z,47.10
2023-06-10T06:28:46.747Z,46.07
2023-06-10T06:29:46.853Z,45.18
2023-06-10T06:30:46.743Z,45.38
2023-06-10T06:31:46.775Z,45.38
2023-06-10T06:32:46.749Z,44.57
2023-06-10T06:33:46.700Z,45.75
2023-06-10T06:34:46.216Z,44.70
2023-06-10T06:35:44.961Z,43.91
2023-06-10T06:36:50.177Z,44.01
2023-06-10T06:37:48.948Z,43.82
2023-06-10T06:38:46.627Z,43.42
2023-06-10T06:39:46.607Z,43.74
2023-06-10T06:40:46.845Z,44.35
2023-06-10T06:41:46.795Z,43.82
2023-06-10T06:42:46.564Z,43.40
2023-06-10T06:43:46.528Z,42.59
2023-06-10T06:44:46.562Z,43.64
2023-06-10T06:45:46.507Z,43.44
2023-06-10T06:46:46.501Z,44.15
2023-06-10T06:47:46.698Z,43.66
2023-06-10T06:48:46.588Z,44.65
2023-06-10T06:49:46.477Z,43.91
2023-06-10T06:50:46.443Z,42.69
2023-06-10T06:51:46.472Z,42.47
2023-06-10T06:52:46.425Z,43.20
2023-06-10T06:53:46.410Z,43.52
2023-06-10T06:54:46.381Z,42.83
2023-06-10T06:55:46.385Z,43.74
2023-06-10T06:56:46.360Z,43.62
2023-06-10T06:57:46.349Z,43.40
2023-06-10T06:58:46.350Z,42.81
2023-06-10T06:59:46.316Z,42.69
2023-06-10T07:00:46.341Z,42.81
2023-06-10T07:01:44.386Z,42.20
2023-06-10T07:02:46.317Z,42.28
2023-06-10T07:03:46.289Z,42.18
2023-06-10T07:04:45.999Z,42.49
2023-06-10T07:05:46.314Z,42.28
2023-06-10T07:06:46.243Z,41.77
2023-06-10T07:07:44.435Z,41.09
2023-06-10T07:08:46.227Z,42.49
2023-06-10T07:09:46.192Z,41.77
2023-06-10T07:10:46.175Z,41.55
2023-06-10T07:11:51.907Z,40.76
2023-06-10T07:12:46.195Z,40.74
2023-06-10T07:13:46.147Z,41.24
2023-06-10T07:14:46.209Z,40.53
2023-06-10T07:15:46.325Z,41.33
2023-06-10T07:16:46.521Z,40.82
2023-06-10T07:17:46.162Z,40.64
2023-06-10T07:18:46.070Z,41.03
2023-06-10T07:19:45.545Z,40.58
2023-06-10T07:20:46.043Z,41.56
2023-06-10T07:21:46.034Z,41.03
2023-06-10T07:22:46.034Z,40.72
2023-06-10T07:23:46.121Z,40.41
2023-06-10T07:24:45.974Z,39.78
2023-06-10T07:25:46.003Z,39.15
2023-06-10T07:26:46.423Z,38.45
2023-06-10T07:27:45.980Z,38.47
2023-06-10T07:28:45.951Z,38.26
2023-06-10T07:29:43.998Z,38.24
2023-06-10T07:30:45.937Z,37.34
2023-06-10T07:31:45.907Z,37.55
2023-06-10T07:32:45.960Z,38.65
2023-06-10T07:33:45.877Z,38.81
2023-06-10T07:34:45.855Z,38.55
2023-06-10T07:35:45.844Z,37.85
2023-06-10T07:36:45.891Z,37.73
2023-06-10T07:37:45.816Z,38.84
2023-06-10T07:38:45.813Z,38.16
2023-06-10T07:39:45.800Z,38.47
2023-06-10T07:40:45.761Z,38.35
2023-06-10T07:41:45.781Z,38.67
2023-06-10T07:42:45.750Z,39.07
2023-06-10T07:43:45.731Z,38.86
2023-06-10T07:44:45.742Z,38.76
2023-06-10T07:45:45.710Z,38.78
2023-06-10T07:46:45.776Z,39.78
2023-06-10T07:47:45.751Z,39.69
2023-06-10T07:48:45.664Z,40.74
2023-06-10T07:49:45.671Z,38.68
2023-06-10T07:50:45.674Z,38.57
2023-06-10T07:51:44.785Z,38.35
2023-06-10T07:52:45.610Z,38.35
2023-06-10T07:53:45.590Z,38.45
2023-06-10T07:54:45.603Z,39.25
2023-06-10T07:55:45.616Z,39.96
2023-06-10T07:56:45.564Z,38.43
2023-06-10T07:57:45.561Z,37.93
2023-06-10T07:58:45.540Z,37.60
2023-06-10T07:59:45.531Z,38.38
2023-06-10T08:00:45.531Z,37.70
2023-06-10T08:01:45.503Z,38.40
2023-06-10T08:02:45.529Z,37.40
2023-06-10T08:03:45.735Z,37.21
2023-06-10T08:04:45.512Z,37.79
2023-06-10T08:05:45.462Z,38.01
2023-06-10T08:06:45.512Z,38.82
2023-06-10T08:07:45.441Z,38.35
2023-06-10T08:08:45.478Z,38.84
2023-06-10T08:09:45.534Z,38.73
2023-06-10T08:10:45.481Z,38.81
2023-06-10T08:11:45.454Z,37.81
2023-06-10T08:12:45.350Z,37.60
2023-06-10T08:13:45.363Z,37.46
2023-06-10T08:14:45.355Z,37.30
2023-06-10T08:15:45.347Z,37.77
2023-06-10T08:16:45.467Z,37.41
2023-06-10T08:17:45.309Z,36.75
2023-06-10T08:18:45.302Z,37.24
2023-06-10T08:19:45.290Z,38.53
2023-06-10T08:20:44.770Z,35.46
2023-06-10T08:21:45.240Z,35.63
2023-06-10T08:22:45.235Z,34.68
2023-06-10T08:23:45.281Z,36.00
2023-06-10T08:24:48.402Z,35.80
2023-06-10T08:25:43.859Z,36.49
2023-06-10T08:26:45.198Z,37.04
2023-06-10T08:27:45.216Z,38.04
2023-06-10T08:28:43.862Z,38.32
2023-06-10T08:29:45.147Z,37.29
2023-06-10T08:30:45.142Z,36.19
2023-06-10T08:31:45.227Z,35.98
2023-06-10T08:32:45.132Z,35.47
2023-06-10T08:33:45.106Z,35.77
2023-06-10T08:34:45.159Z,36.33
2023-06-10T08:35:45.078Z,36.53
2023-06-10T08:36:43.101Z,35.53
2023-06-10T08:37:45.074Z,34.84
2023-06-10T08:38:45.095Z,34.30
2023-06-10T08:39:45.082Z,33.43
2023-06-10T08:40:44.284Z,34.03
2023-06-10T08:41:45.031Z,34.12
2023-06-10T08:42:46.123Z,33.43
2023-06-10T08:43:44.976Z,33.70
2023-06-10T08:44:44.947Z,33.95
2023-06-10T08:45:45.093Z,35.63
2023-06-10T08:46:44.946Z,34.94
2023-06-10T08:47:44.984Z,34.64
2023-06-10T08:48:44.964Z,34.86
2023-06-10T08:49:44.901Z,34.74
2023-06-10T08:50:44.884Z,34.12
2023-06-10T08:51:42.969Z,34.24
2023-06-10T08:52:44.870Z,34.94
2023-06-10T08:53:44.835Z,34.55
2023-06-10T08:54:44.844Z,35.44
2023-06-10T08:55:44.814Z,35.67
2023-06-10T08:56:44.812Z,37.93
2023-06-10T08:57:42.917Z,39.86
2023-06-10T08:58:44.793Z,41.27
2023-06-10T08:59:44.765Z,39.66
2023-06-10T09:00:44.752Z,40.41
2023-06-10T09:01:44.777Z,38.30
2023-06-10T09:02:44.777Z,36.83
2023-06-10T09:03:45.034Z,36.68
2023-06-10T09:04:44.701Z,36.14
2023-06-10T09:05:44.697Z,35.03
2023-06-10T09:06:44.694Z,34.78
2023-06-10T09:07:44.677Z,36.04
2023-06-10T09:08:44.667Z,35.02
2023-06-10T09:09:44.659Z,34.56
2023-06-10T09:10:44.637Z,34.64
2023-06-10T09:11:44.634Z,34.74
2023-06-10T09:12:44.614Z,34.11
2023-06-10T09:13:44.595Z,34.01
2023-06-10T09:14:44.589Z,34.39
2023-06-10T09:15:44.577Z,34.68
2023-06-10T09:16:44.596Z,34.39
2023-06-10T09:17:44.577Z,36.02
2023-06-10T09:18:44.551Z,34.61
2023-06-10T09:19:44.535Z,34.17
2023-06-10T09:20:43.997Z,34.78
2023-06-10T09:21:42.887Z,35.43
2023-06-10T09:22:44.920Z,35.77
2023-06-10T09:23:44.895Z,37.79
2023-06-10T09:24:44.512Z,38.02
2023-06-10T09:25:43.235Z,38.02
2023-06-10T09:26:44.654Z,37.98
2023-06-10T09:27:44.436Z,39.14
2023-06-10T09:28:44.437Z,40.37
2023-06-10T09:29:44.438Z,40.37
2023-06-10T09:30:44.404Z,38.72
2023-06-10T09:31:44.482Z,37.59
2023-06-10T09:32:44.459Z,37.65
2023-06-10T09:33:44.381Z,39.09
2023-06-10T09:34:44.682Z,39.45
2023-06-10T09:35:44.550Z,38.31
2023-06-10T09:36:44.323Z,37.95
2023-06-10T09:37:44.302Z,36.10
2023-06-10T09:38:43.718Z,37.31
2023-06-10T09:39:44.301Z,36.47
2023-06-10T09:40:44.275Z,37.21
2023-06-10T09:41:44.332Z,38.23
2023-06-10T09:42:42.849Z,38.68
2023-06-10T09:43:44.238Z,39.48
2023-06-10T09:44:43.683Z,39.53
2023-06-10T09:45:44.229Z,38.06
2023-06-10T09:46:45.149Z,36.61
2023-06-10T09:47:44.341Z,37.02
2023-06-10T09:48:43.717Z,38.15
2023-06-10T09:49:42.752Z,38.53
2023-06-10T09:50:44.221Z,37.81
2023-06-10T09:51:44.144Z,38.60
2023-06-10T09:52:42.536Z,39.53
2023-06-10T09:53:42.301Z,39.15
2023-06-10T09:54:44.366Z,40.47
2023-06-10T09:55:44.080Z,39.80
2023-06-10T09:56:43.859Z,39.17
2023-06-10T09:57:42.740Z,39.07
2023-06-10T09:58:44.075Z,39.66
2023-06-10T09:59:44.204Z,39.42
2023-06-10T10:00:44.019Z,40.39
2023-06-10T10:01:44.131Z,39.07
2023-06-10T10:02:44.004Z,39.60
2023-06-10T10:03:43.987Z,39.90
2023-06-10T10:04:44.009Z,37.94
2023-06-10T10:05:44.003Z,36.74
2023-06-10T10:06:42.472Z,37.56
2023-06-10T10:07:44.018Z,37.45
2023-06-10T10:08:43.996Z,36.94
2023-06-10T10:09:44.024Z,37.56
2023-06-10T10:10:43.923Z,36.63
2023-06-10T10:11:42.856Z,36.72
2023-06-10T10:12:42.206Z,37.66
2023-06-10T10:13:43.954Z,39.09
2023-06-10T10:14:43.385Z,39.31
2023-06-10T10:15:43.909Z,41.02
2023-06-10T10:16:43.861Z,40.05
2023-06-10T10:17:43.836Z,39.39
2023-06-10T10:18:43.821Z,38.17
2023-06-10T10:19:46.311Z,37.81
2023-06-10T10:20:43.745Z,36.77
2023-06-10T10:21:43.028Z,37.13
2023-06-10T10:22:43.777Z,38.19
2023-06-10T10:23:43.819Z,40.21
2023-06-10T10:24:43.722Z,41.35
2023-06-10T10:25:43.767Z,40.76
2023-06-10T10:26:41.758Z,42.36
2023-06-10T10:27:43.746Z,42.38
2023-06-10T10:28:43.697Z,41.78
2023-06-10T10:29:43.664Z,40.41
2023-06-10T10:30:43.663Z,38.96
2023-06-10T10:31:43.614Z,37.58
2023-06-10T10:32:43.665Z,38.60
2023-06-10T10:33:43.676Z,37.05
2023-06-10T10:34:43.564Z,36.79
2023-06-10T10:35:43.542Z,37.71
2023-06-10T10:36:43.600Z,36.47
2023-06-10T10:37:43.548Z,35.30
2023-06-10T10:38:43.525Z,37.00
2023-06-10T10:39:43.501Z,36.61
2023-06-10T10:40:43.476Z,36.41
2023-06-10T10:41:43.497Z,35.79
2023-06-10T10:42:42.976Z,36.28
2023-06-10T10:43:43.491Z,35.46
2023-06-10T10:44:43.421Z,35.41
2023-06-10T10:45:41.681Z,33.62
2023-06-10T10:46:43.615Z,33.69
2023-06-10T10:47:42.849Z,35.01
2023-06-10T10:48:43.405Z,35.79
2023-06-10T10:49:43.421Z,36.47
2023-06-10T10:50:42.033Z,34.89
2023-06-10T10:51:43.368Z,35.19
2023-06-10T10:52:41.567Z,34.91
2023-06-10T10:53:43.338Z,34.78
2023-06-10T10:54:43.303Z,34.57
2023-06-10T10:55:43.311Z,34.55
2023-06-10T10:56:43.652Z,33.50
2023-06-10T10:57:43.275Z,35.16
2023-06-10T10:58:43.280Z,34.78
2023-06-10T10:59:43.249Z,35.68
2023-06-10T11:00:41.422Z,35.25
2023-06-10T11:01:43.302Z,34.26
2023-06-10T11:02:42.817Z,33.51
2023-06-10T11:03:43.290Z,33.69
2023-06-10T11:04:43.318Z,33.98
2023-06-10T11:05:43.307Z,35.34
2023-06-10T11:06:43.164Z,36.25
2023-06-10T11:07:43.156Z,35.65
2023-06-10T11:08:43.241Z,35.63
2023-06-10T11:09:43.121Z,34.96
2023-06-10T11:10:43.102Z,34.75
2023-06-10T11:11:43.119Z,34.55
2023-06-10T11:12:43.085Z,34.45
2023-06-10T11:13:43.091Z,34.20
2023-06-10T11:14:43.062Z,35.29
2023-06-10T11:15:43.050Z,36.91
2023-06-10T11:16:43.197Z,37.58
2023-06-10T11:17:43.076Z,35.78
2023-06-10T11:18:43.023Z,35.86
2023-06-10T11:19:44.525Z,35.65
2023-06-10T11:20:41.128Z,36.08
2023-06-10T11:21:43.233Z,35.53
2023-06-10T11:22:42.948Z,35.45
2023-06-10T11:23:43.119Z,35.44
2023-06-10T11:24:43.051Z,35.81
2023-06-10T11:25:42.927Z,33.92
2023-06-10T11:26:42.918Z,33.92
2023-06-10T11:27:42.934Z,33.09
2023-06-10T11:28:42.962Z,33.38
2023-06-10T11:29:42.928Z,33.85
2023-06-10T11:30:42.916Z,32.97
2023-06-10T11:31:43.012Z,33.36
2023-06-10T11:32:42.908Z,33.59
2023-06-10T11:33:42.903Z,35.01
2023-06-10T11:34:42.807Z,35.83
2023-06-10T11:35:42.957Z,35.45
2023-06-10T11:36:42.789Z,35.22
2023-06-10T11:37:42.811Z,35.40
2023-06-10T11:38:42.826Z,34.21
2023-06-10T11:39:42.728Z,34.62
2023-06-10T11:40:42.815Z,34.83
2023-06-10T11:41:42.731Z,35.09
2023-06-10T11:42:42.714Z,34.09
2023-06-10T11:43:42.728Z,34.97
2023-06-10T11:44:42.935Z,33.67
2023-06-10T11:45:42.724Z,33.25
2023-06-10T11:46:44.244Z,33.22
2023-06-10T11:47:42.715Z,32.01
2023-06-10T11:48:42.908Z,31.99
2023-06-10T11:49:44.988Z,32.21
2023-06-10T11:50:42.646Z,32.21
2023-06-10T11:51:42.133Z,32.58
2023-06-10T11:52:42.609Z,31.79
2023-06-10T11:53:42.604Z,32.67
2023-06-10T11:54:42.550Z,31.99
2023-06-10T11:55:42.557Z,32.16
2023-06-10T11:56:42.715Z,32.03
2023-06-10T11:57:42.505Z,30.87
2023-06-10T11:58:42.499Z,31.28
2023-06-10T11:59:42.601Z,32.50
2023-06-10T12:00:42.481Z,33.48
2023-06-10T12:01:44.356Z,32.47
2023-06-10T12:02:42.498Z,33.04
2023-06-10T12:03:42.578Z,33.14
2023-06-10T12:04:42.422Z,33.46
2023-06-10T12:05:42.626Z,33.79
2023-06-10T12:06:44.000Z,35.45
2023-06-10T12:07:42.393Z,36.06
2023-06-10T12:08:42.391Z,36.70
2023-06-10T12:09:42.388Z,37.23
2023-06-10T12:10:42.341Z,38.34
2023-06-10T12:11:42.322Z,39.34
2023-06-10T12:12:42.312Z,38.07
2023-06-10T12:13:42.308Z,37.25
2023-06-10T12:14:42.291Z,36.94
2023-06-10T12:15:42.280Z,35.94
2023-06-10T12:16:42.269Z,34.81
2023-06-10T12:17:42.292Z,34.08
2023-06-10T12:18:41.827Z,33.26
2023-06-10T12:19:42.232Z,32.87
2023-06-10T12:20:42.229Z,33.67
2023-06-10T12:21:42.211Z,33.26
2023-06-10T12:22:42.365Z,33.70
2023-06-10T12:23:42.228Z,32.99
2023-06-10T12:24:41.772Z,32.99
2023-06-10T12:25:42.180Z,32.82
2023-06-10T12:26:42.324Z,33.22
2023-06-10T12:27:42.180Z,33.98
2023-06-10T12:28:42.190Z,33.02
2023-06-10T12:29:42.084Z,33.28
2023-06-10T12:30:41.597Z,32.68
2023-06-10T12:31:42.117Z,32.71
2023-06-10T12:32:42.364Z,33.46
2023-06-10T12:33:42.053Z,35.22
2023-06-10T12:34:42.026Z,34.52
2023-06-10T12:35:42.065Z,33.02
2023-06-10T12:36:42.011Z,33.84
2023-06-10T12:37:43.310Z,32.32
2023-06-10T12:38:41.974Z,31.80
2023-06-10T12:39:41.984Z,31.09
2023-06-10T12:40:41.979Z,32.52
2023-06-10T12:41:41.947Z,31.17
2023-06-10T12:42:41.949Z,30.98
2023-06-10T12:43:41.904Z,32.24
2023-06-10T12:44:41.918Z,30.85
2023-06-10T12:45:41.914Z,30.15
2023-06-10T12:46:41.877Z,31.07
2023-06-10T12:47:41.867Z,31.45
2023-06-10T12:48:41.301Z,32.06
2023-06-10T12:49:41.841Z,31.90
2023-06-10T12:50:41.827Z,33.20
2023-06-10T12:51:41.834Z,33.79
2023-06-10T12:52:41.784Z,33.59